Terminal Aerodrome Forecast
Issued by NWS Omaha/Valley, NE

Home | Current Version | Previous Version | Text Only | Print | Product List | Glossary Off
Versions: 1 2 3 4 5 6 7 8 9 10 11 12 13 14 15 16 17 18

000
FTUS43 KOAX 150302 AAA
TAFOFK
TAF AMD
KOFK 150302Z 1503/1524 19010KT P6SM BKN200 WS020/26040KT
     FM150700 VRB04KT P6SM BKN150
      TEMPO 1510/1514 4SM BR
     FM151500 35010KT P6SM BKN090
     FM152000 35017G25KT P6SM BKN025=

USA.gov is the U.S. government's official web portal to all federal, state and local government web resources and services.